Adrian, MN

8:24 PM CST on February 10, 2016 (GMT -0600)
WolfPork | | Change Station
CLOSE
Current Station
Personal Weather Station
Location: Adrian, MN
Elevation: 1568 ft
Nearby Weather Stations

Elev 1568 ft 43.59 °N, 95.96 °W | Updated 1 minute ago

Overcast
Overcast
10.2 °F
Feels Like -3 °F
N
9.4
Wind Variable Wind from NE

Today
High -- | Low -- °F
--% Chance of Precip.
Yesterday
High -- | Low -- °F
Precip. -- in
Pressure 30.18 in
Visibility 10.0 miles
Clouds Mostly Cloudy 2200 ft
Overcast 3000 ft
Windchill -3 °F
Dew Point 9 °F
Humidity 93%
Rainfall 0.00 in
Snow Depth Not available.
7:29 AM 5:46 PM
Waxing Crescent, 8% visible
METAR KLYV 110216Z AUTO 07007KT 10SM BKN022 OVC030 M10/M13 A3018 RMK AO2
Pressure 30.18 in
Visibility 10.0 miles
Clouds Mostly Cloudy 2200 ft
Overcast 3000 ft
Windchill -3 °F
Dew Point 9 °F
Humidity 93%
Rainfall 0.00 in
Snow Depth Not available.
7:29 AM 5:46 PM
Waxing Crescent, 8% visible
METAR KLYV 110216Z AUTO 07007KT 10SM BKN022 OVC030 M10/M13 A3018 RMK AO2

10-Day Weather Forecast

Almanac

Astronomy

Feb. 10, 2016 Rise Set
Actual Time
Civil Twilight
Nautical Twilight
Astronomical Twilight
Moon
Length of Visible Light
Length of Day
Tomorrow will be .
, % of the Moon is Illuminated

Today's Extremes

State Highs State Lows

Community

WunderPhotos

Upload Photos

1,891,984 photos uploaded!

WunderBlog® & News

Nearby

Air Quality

  Air Quality AQ Index Pollutant
Not available.

Snow Depth

Station Depth Elevation

Earthquake Activity

City Distance Mag. Time & Date
Minimum magnitude displayed is 2.5.

Coastal Water Temperatures

Place Temperature

Stations

Nearby Weather Stations

Station Location Temp. Windchill Dew Point Humidity Wind Precip. Elev Updated Type
                   

Watches & Warnings

There are currently no watches in effect.